createdAt,value
2017-02-17T00:00:58.131Z,44
2017-02-17T00:03:30.669Z,44
2017-02-17T00:06:03.234Z,44
2017-02-17T00:08:36.222Z,44
2017-02-17T00:11:08.796Z,44
2017-02-17T00:13:41.921Z,44
2017-02-17T00:16:14.888Z,44
2017-02-17T00:18:47.630Z,44
2017-02-17T00:21:20.663Z,44
2017-02-17T00:23:53.212Z,44
2017-02-17T00:26:26.143Z,44
2017-02-17T00:28:59.967Z,44
2017-02-17T00:31:32.550Z,44
2017-02-17T00:34:05.544Z,44
2017-02-17T00:36:38.088Z,43.9
2017-02-17T00:39:10.640Z,43.9
2017-02-17T00:41:43.629Z,43.9
2017-02-17T00:44:16.172Z,44
2017-02-17T00:46:49.811Z,43.9
2017-02-17T00:49:22.783Z,44
2017-02-17T00:51:55.347Z,43.9
2017-02-17T00:54:27.929Z,43.9
2017-02-17T00:57:00.462Z,43.8
2017-02-17T00:59:33.886Z,43.8
2017-02-17T01:02:06.424Z,43.8
2017-02-17T01:04:39.377Z,43.8
2017-02-17T01:07:12.113Z,43.7
2017-02-17T01:09:45.077Z,43.7
2017-02-17T01:12:17.665Z,43.7
2017-02-17T01:14:50.262Z,43.7
2017-02-17T01:17:22.786Z,43.7
2017-02-17T01:19:55.331Z,43.7
2017-02-17T01:22:28.543Z,43.7
2017-02-17T01:25:02.007Z,43.7
2017-02-17T01:27:35.004Z,43.7
2017-02-17T01:30:07.563Z,43.7
2017-02-17T01:32:40.543Z,43.8
2017-02-17T01:35:13.139Z,43.9
2017-02-17T01:37:45.729Z,43.8
2017-02-17T01:40:18.256Z,43.9
2017-02-17T01:42:51.220Z,43.9
2017-02-17T01:45:23.768Z,43.8
2017-02-17T01:47:56.346Z,43.8
2017-02-17T01:50:28.912Z,43.8
2017-02-17T01:53:01.886Z,43.8
2017-02-17T01:55:34.645Z,43.7
2017-02-17T01:58:07.232Z,43.7
2017-02-17T02:00:40.215Z,43.7
2017-02-17T02:03:13.611Z,43.6
2017-02-17T02:05:46.301Z,43.5
2017-02-17T02:08:18.886Z,43.6
2017-02-17T02:10:51.436Z,43.5
2017-02-17T02:13:24.431Z,43.4
2017-02-17T02:15:57.245Z,43.4
2017-02-17T02:18:29.777Z,43.4
2017-02-17T02:21:02.367Z,43.3
2017-02-17T02:23:35.729Z,43.3
2017-02-17T02:26:08.511Z,43.3
2017-02-17T02:28:41.070Z,43.3
2017-02-17T02:31:14.904Z,43.2
2017-02-17T02:33:47.443Z,43.3
2017-02-17T02:36:20.460Z,43.2
2017-02-17T02:38:53.415Z,43.2
2017-02-17T02:41:26.175Z,43.2
2017-02-17T02:43:58.717Z,43.2
2017-02-17T02:46:32.082Z,43.2
2017-02-17T02:49:04.614Z,43.2
2017-02-17T02:51:37.144Z,43.2
2017-02-17T02:54:10.133Z,43.2
2017-02-17T02:56:43.104Z,43.2
2017-02-17T02:59:15.684Z,43.2
2017-02-17T03:01:48.230Z,43.2
2017-02-17T03:04:20.755Z,43.2
2017-02-17T03:06:53.297Z,43.2
2017-02-17T03:09:25.817Z,43.2
2017-02-17T03:11:58.363Z,43.3
2017-02-17T03:14:30.882Z,43.2
2017-02-17T03:17:03.419Z,43.2
2017-02-17T03:19:35.948Z,43.2
2017-02-17T03:22:08.894Z,43.2
2017-02-17T03:24:41.421Z,43.2
2017-02-17T03:27:13.963Z,43.2
2017-02-17T03:29:46.919Z,43.2
2017-02-17T03:32:19.465Z,43.3
2017-02-17T03:34:52.026Z,43.2
2017-02-17T03:37:24.593Z,43.2
2017-02-17T03:39:57.553Z,43.2
2017-02-17T03:42:30.095Z,43.2
2017-02-17T03:45:03.472Z,43.2
2017-02-17T03:47:36.444Z,43.2
2017-02-17T03:50:08.985Z,43.2
2017-02-17T03:52:41.971Z,43.2
2017-02-17T03:55:14.513Z,43.2
2017-02-17T03:57:47.049Z,43.2
2017-02-17T04:00:19.999Z,43.2
2017-02-17T04:02:52.534Z,43.2
2017-02-17T04:05:25.466Z,43.2
2017-02-17T04:07:58.051Z,43.2
2017-02-17T04:10:30.993Z,43.2
2017-02-17T04:13:03.526Z,43.2
2017-02-17T04:15:36.078Z,43.2
2017-02-17T04:18:08.624Z,43.2
2017-02-17T04:20:41.599Z,43.2
2017-02-17T04:23:14.980Z,43.2
2017-02-17T04:25:47.519Z,43.2
2017-02-17T04:28:20.068Z,43.2
2017-02-17T04:30:52.598Z,43.1
2017-02-17T04:33:25.118Z,43.1
2017-02-17T04:35:58.072Z,43.2
2017-02-17T04:38:31.016Z,43.2
2017-02-17T04:41:03.547Z,43.1
2017-02-17T04:43:36.098Z,43.2
2017-02-17T04:46:08.611Z,43.2
2017-02-17T04:48:41.139Z,43.2
2017-02-17T04:51:14.086Z,43.2
2017-02-17T04:53:47.045Z,43.2
2017-02-17T04:56:19.577Z,43.1
2017-02-17T04:58:52.113Z,43.1
2017-02-17T05:01:25.520Z,43.1
2017-02-17T05:03:58.513Z,43.1
2017-02-17T05:06:31.066Z,43.1
2017-02-17T05:09:03.583Z,43.1
2017-02-17T05:11:37.003Z,43.1
2017-02-17T05:14:09.951Z,43.1
2017-02-17T05:16:42.483Z,43
2017-02-17T05:19:15.011Z,43
2017-02-17T05:21:47.540Z,43
2017-02-17T05:24:20.098Z,43
2017-02-17T05:26:52.632Z,43.1
2017-02-17T05:29:25.167Z,43
2017-02-17T05:31:57.704Z,43.1
2017-02-17T05:34:30.435Z,43.1
2017-02-17T05:37:03.369Z,43.1
2017-02-17T05:39:36.346Z,43.1
2017-02-17T05:42:08.877Z,43.1
2017-02-17T05:44:41.858Z,43.1
2017-02-17T05:47:14.427Z,43.1
2017-02-17T05:49:47.384Z,43.1
2017-02-17T05:52:19.912Z,43.1
2017-02-17T05:54:52.886Z,43.1
2017-02-17T05:57:25.412Z,43.1
2017-02-17T05:59:57.935Z,43.1
2017-02-17T06:02:30.481Z,43.1
2017-02-17T06:05:03.433Z,43.1
2017-02-17T06:07:36.389Z,43.1
2017-02-17T06:10:08.936Z,43.1
2017-02-17T06:12:41.894Z,43.1
2017-02-17T06:15:14.430Z,43.1
2017-02-17T06:17:46.981Z,43.1
2017-02-17T06:20:19.514Z,43.2
2017-02-17T06:22:52.073Z,43.2
2017-02-17T06:25:25.061Z,43.1
2017-02-17T06:27:57.598Z,43.1
2017-02-17T06:30:30.141Z,43.2
2017-02-17T06:33:02.691Z,43.2
2017-02-17T06:35:35.246Z,43.2
2017-02-17T06:38:08.423Z,43.1
2017-02-17T06:40:40.957Z,43.2
2017-02-17T06:43:13.578Z,43.2
2017-02-17T06:45:46.099Z,43.2
2017-02-17T06:48:18.686Z,43.2
2017-02-17T06:50:51.641Z,43.2
2017-02-17T06:53:24.180Z,43.2
2017-02-17T06:55:56.723Z,43.2
2017-02-17T06:58:29.251Z,43.1
2017-02-17T07:01:02.220Z,43.2
2017-02-17T07:03:35.174Z,43.2
2017-02-17T07:06:08.158Z,43.1
2017-02-17T07:08:41.107Z,43.2
2017-02-17T07:11:14.057Z,43.2
2017-02-17T07:13:46.585Z,43.1
2017-02-17T07:16:19.111Z,43.2
2017-02-17T07:18:51.646Z,43.1
2017-02-17T07:21:24.629Z,43.1
2017-02-17T07:23:57.380Z,43.2
2017-02-17T07:26:30.793Z,43.2
2017-02-17T07:29:03.349Z,43.2
2017-02-17T07:31:36.333Z,43.2
2017-02-17T07:34:08.880Z,43.2
2017-02-17T07:36:41.839Z,43.2
2017-02-17T07:39:15.243Z,43.2
2017-02-17T07:41:47.769Z,43.2
2017-02-17T07:44:20.317Z,43.2
2017-02-17T07:46:52.883Z,43.3
2017-02-17T07:49:25.444Z,43.2
2017-02-17T07:51:58.408Z,43.2
2017-02-17T07:54:31.842Z,43.3
2017-02-17T07:57:04.824Z,43.3
2017-02-17T07:59:37.793Z,43.2
2017-02-17T08:02:10.744Z,43.4
2017-02-17T08:04:43.270Z,43.3
2017-02-17T08:07:15.816Z,43.3
2017-02-17T08:09:48.340Z,43.3
2017-02-17T08:12:20.907Z,43.4
2017-02-17T08:14:53.505Z,43.3
2017-02-17T08:17:26.084Z,43.2
2017-02-17T08:19:58.699Z,43.2
2017-02-17T08:22:31.275Z,43.4
2017-02-17T08:25:04.741Z,43.5
2017-02-17T08:27:38.251Z,43.6
2017-02-17T08:30:11.251Z,43.6
2017-02-17T08:32:44.173Z,43.7
2017-02-17T08:35:17.168Z,43.7
2017-02-17T08:37:50.239Z,43.7
2017-02-17T08:40:22.836Z,43.8
2017-02-17T08:42:55.840Z,43.9
2017-02-17T08:45:28.850Z,43.9
2017-02-17T08:48:01.502Z,43.9
2017-02-17T08:50:34.509Z,44
2017-02-17T08:53:07.093Z,44
2017-02-17T08:55:39.664Z,44
2017-02-17T08:58:12.648Z,44
2017-02-17T09:00:45.265Z,44
2017-02-17T09:03:18.214Z,44.1
2017-02-17T09:05:50.884Z,44.1
2017-02-17T09:08:23.509Z,44
2017-02-17T09:10:56.084Z,44
2017-02-17T09:13:28.679Z,44
2017-02-17T09:16:01.445Z,44
2017-02-17T09:18:34.018Z,44
2017-02-17T09:21:06.644Z,42.9
2017-02-17T09:23:39.631Z,42.5
2017-02-17T09:26:12.204Z,43.1
2017-02-17T09:28:44.787Z,43.7
2017-02-17T09:31:17.902Z,44
2017-02-17T09:33:50.469Z,44
2017-02-17T09:36:23.279Z,44.3
2017-02-17T09:38:55.826Z,44.3
2017-02-17T09:41:29.275Z,44.5
2017-02-17T09:44:01.872Z,44.4
2017-02-17T09:46:34.441Z,44.4
2017-02-17T09:49:07.316Z,44.5
2017-02-17T09:51:39.869Z,44.5
2017-02-17T09:54:12.515Z,44.8
2017-02-17T09:56:45.093Z,44.6
2017-02-17T09:59:17.909Z,44.5
2017-02-17T10:01:50.626Z,44.5
2017-02-17T10:04:23.363Z,44.5
2017-02-17T10:06:55.943Z,44.5
2017-02-17T10:09:28.512Z,44.5
2017-02-17T10:12:01.572Z,44.5
2017-02-17T10:14:34.610Z,44.5
2017-02-17T10:17:07.206Z,44.5
2017-02-17T10:19:40.194Z,44.5
2017-02-17T10:22:13.339Z,44.5
2017-02-17T10:24:45.907Z,44.5
2017-02-17T10:27:19.583Z,44.5
2017-02-17T10:29:52.147Z,44.5
2017-02-17T10:32:25.136Z,44.5
2017-02-17T10:34:57.720Z,44.5
2017-02-17T10:37:30.762Z,44.6
2017-02-17T10:40:03.354Z,44.5
2017-02-17T10:42:36.349Z,44.6
2017-02-17T10:45:08.919Z,44.6
2017-02-17T10:47:42.208Z,44.6
2017-02-17T10:50:15.313Z,44.6
2017-02-17T10:52:48.759Z,44.6
2017-02-17T10:55:21.354Z,44.6
2017-02-17T10:57:54.363Z,44.7
2017-02-17T11:00:26.933Z,44.6
2017-02-17T11:02:59.532Z,44.6
2017-02-17T11:05:32.197Z,44.5
2017-02-17T11:08:04.775Z,44.4
2017-02-17T11:10:37.526Z,44.4
2017-02-17T11:13:10.106Z,44.4
2017-02-17T11:15:42.937Z,44.4
2017-02-17T11:18:15.510Z,44.3
2017-02-17T11:20:48.819Z,44.3
2017-02-17T11:23:21.834Z,44.3
2017-02-17T11:25:54.436Z,44.3
2017-02-17T11:28:27.440Z,44.4
2017-02-17T11:31:00.190Z,44.4
2017-02-17T11:33:33.215Z,44.4
2017-02-17T11:36:05.774Z,44.4
2017-02-17T11:38:38.650Z,44.4
2017-02-17T11:41:11.400Z,44.6
2017-02-17T11:43:44.109Z,44.5
2017-02-17T11:46:16.753Z,44.5
2017-02-17T11:48:49.391Z,44.5
2017-02-17T11:51:22.013Z,44.4
2017-02-17T11:53:54.762Z,44.3
2017-02-17T11:56:27.301Z,44.3
2017-02-17T11:58:59.838Z,44.3
2017-02-17T12:01:32.812Z,44.2
2017-02-17T12:04:05.344Z,44.2
2017-02-17T12:06:37.902Z,44.1
2017-02-17T12:09:10.680Z,44
2017-02-17T12:11:43.218Z,44
2017-02-17T12:14:15.783Z,43.9
2017-02-17T12:16:48.748Z,43.9
2017-02-17T12:19:21.822Z,43.9
2017-02-17T12:21:54.395Z,43.8
2017-02-17T12:24:27.337Z,43.7
2017-02-17T12:27:00.424Z,43.6
2017-02-17T12:29:33.295Z,43.8
2017-02-17T12:32:06.324Z,44.3
2017-02-17T12:34:39.305Z,43.9
2017-02-17T12:37:11.883Z,44.1
2017-02-17T12:39:44.892Z,44.3
2017-02-17T12:42:18.501Z,44.4
2017-02-17T12:44:51.255Z,44.5
2017-02-17T12:47:23.824Z,44.6
2017-02-17T12:49:56.400Z,44.6
2017-02-17T12:52:29.383Z,44.8
2017-02-17T12:55:01.948Z,44.8
2017-02-17T12:57:35.372Z,45.1
2017-02-17T13:00:07.952Z,45
2017-02-17T13:02:40.507Z,45.1
2017-02-17T13:05:13.077Z,45.1
2017-02-17T13:07:46.045Z,45.3
2017-02-17T13:10:50.918Z,45.3
2017-02-17T13:13:23.481Z,45.5
2017-02-17T13:15:56.464Z,45.5
2017-02-17T13:18:29.618Z,45.6
2017-02-17T13:21:02.631Z,45.8
2017-02-17T13:23:35.190Z,45.7
2017-02-17T13:26:07.753Z,45.9
2017-02-17T13:28:40.728Z,46.1
2017-02-17T13:31:13.713Z,46
2017-02-17T13:33:46.882Z,46.2
2017-02-17T13:36:19.880Z,46.3
2017-02-17T13:38:52.950Z,46.3
2017-02-17T13:41:26.283Z,46.2
2017-02-17T13:43:59.484Z,46.3
2017-02-17T13:46:32.770Z,46.3
2017-02-17T13:49:05.379Z,46.9
2017-02-17T13:51:37.976Z,46.6
2017-02-17T13:54:10.528Z,48.3
2017-02-17T13:56:43.077Z,47.3
2017-02-17T13:59:16.797Z,47.4
2017-02-17T14:01:49.425Z,47.4
2017-02-17T14:04:22.010Z,47.6
2017-02-17T14:06:54.555Z,47.6
2017-02-17T14:09:27.133Z,47.8
2017-02-17T14:11:59.705Z,48.1
2017-02-17T14:14:32.267Z,48.4
2017-02-17T14:17:04.837Z,48.4
2017-02-17T14:19:37.420Z,48.8
2017-02-17T14:22:10.404Z,48.6
2017-02-17T14:24:42.967Z,50.5
2017-02-17T14:27:15.985Z,50.2
2017-02-17T14:29:49.398Z,50.8
2017-02-17T14:32:21.966Z,51.2
2017-02-17T14:34:54.957Z,51.5
2017-02-17T14:37:27.530Z,51.7
2017-02-17T14:40:00.544Z,50.4
2017-02-17T14:42:33.296Z,49.6
2017-02-17T14:45:06.017Z,49
2017-02-17T14:47:38.798Z,48.7
2017-02-17T14:50:11.383Z,48.5
2017-02-17T14:52:45.368Z,48.2
2017-02-17T14:55:17.947Z,48
2017-02-17T14:57:50.501Z,47.7
2017-02-17T15:00:23.577Z,47.6
2017-02-17T15:02:56.572Z,47.4
2017-02-17T15:05:29.235Z,47.3
2017-02-17T15:08:01.930Z,47.2
2017-02-17T15:10:34.929Z,47.1
2017-02-17T15:13:07.505Z,47
2017-02-17T15:15:40.044Z,46.8
2017-02-17T15:18:12.700Z,46.4
2017-02-17T15:20:45.250Z,46.1
2017-02-17T15:23:17.784Z,46
2017-02-17T15:25:50.410Z,46
2017-02-17T15:28:23.058Z,45.8
2017-02-17T15:30:55.601Z,45.8
2017-02-17T15:33:28.136Z,45.8
2017-02-17T15:36:01.087Z,46
2017-02-17T15:38:33.916Z,45.9
2017-02-17T15:41:07.314Z,45.8
2017-02-17T15:43:39.858Z,45.9
2017-02-17T15:46:12.466Z,46.4
2017-02-17T15:48:45.457Z,47
2017-02-17T15:51:18.039Z,47.2
2017-02-17T15:53:51.007Z,47.5
2017-02-17T15:56:23.551Z,48.2
2017-02-17T15:58:56.103Z,49
2017-02-17T16:01:29.070Z,49.2
2017-02-17T16:04:02.277Z,49.3
2017-02-17T16:06:34.954Z,49.2
2017-02-17T16:09:07.489Z,49.3
2017-02-17T16:11:40.011Z,49.2
2017-02-17T16:14:12.533Z,49.1
2017-02-17T16:16:45.076Z,49
2017-02-17T16:19:17.615Z,49
2017-02-17T16:21:50.585Z,48.9
2017-02-17T16:24:23.317Z,48.8
2017-02-17T16:26:55.868Z,48.8
2017-02-17T16:29:28.406Z,48.7
2017-02-17T16:32:00.971Z,48.6
2017-02-17T16:34:34.028Z,48.5
2017-02-17T16:37:06.562Z,48.4
2017-02-17T16:39:39.090Z,48.3
2017-02-17T16:42:11.631Z,48.1
2017-02-17T16:44:44.588Z,48
2017-02-17T16:47:17.498Z,47.6
2017-02-17T16:49:50.039Z,47.4
2017-02-17T16:52:22.570Z,47.5
2017-02-17T16:54:55.953Z,47.6
2017-02-17T16:57:28.520Z,48
2017-02-17T17:00:01.613Z,47.6
2017-02-17T17:02:35.000Z,47.5
2017-02-17T17:05:07.529Z,47.8
2017-02-17T17:07:40.054Z,47.9
2017-02-17T17:10:12.615Z,48.2
2017-02-17T17:12:45.575Z,48.3
2017-02-17T17:15:18.124Z,48.1
2017-02-17T17:17:51.018Z,48.2
2017-02-17T17:20:23.575Z,48.3
2017-02-17T17:22:56.719Z,48.2
2017-02-17T17:25:29.290Z,48.3
2017-02-17T17:28:02.255Z,48.3
2017-02-17T17:30:35.026Z,48.1
2017-02-17T17:33:07.972Z,48.2
2017-02-17T17:35:40.502Z,48.1
2017-02-17T17:38:13.034Z,48.2
2017-02-17T17:40:45.587Z,48.2
2017-02-17T17:43:18.572Z,48.3
2017-02-17T17:45:51.107Z,48.1
2017-02-17T17:48:23.668Z,47.9
2017-02-17T17:50:56.243Z,47.8
2017-02-17T17:53:29.644Z,47.8
2017-02-17T17:56:03.045Z,47.9
2017-02-17T17:58:35.609Z,48
2017-02-17T18:01:08.162Z,47.7
2017-02-17T18:03:41.179Z,47.6
2017-02-17T18:06:13.739Z,47.7
2017-02-17T18:08:46.705Z,47.5
2017-02-17T18:11:19.657Z,47.4
2017-02-17T18:13:52.197Z,47.3
2017-02-17T18:16:24.737Z,47.3
2017-02-17T18:18:57.610Z,47.2
2017-02-17T18:21:30.155Z,47.3
2017-02-17T18:24:03.115Z,47.3
2017-02-17T18:26:36.259Z,47.3
2017-02-17T18:29:08.799Z,47.3
2017-02-17T18:31:41.336Z,47.2
2017-02-17T18:34:13.890Z,47.2
2017-02-17T18:36:46.420Z,47.2
2017-02-17T18:39:19.386Z,47.2
2017-02-17T18:41:51.925Z,47.3
2017-02-17T18:44:24.489Z,47.3
2017-02-17T18:46:57.461Z,47.3
2017-02-17T18:49:30.015Z,47.3
2017-02-17T18:52:02.633Z,47.4
2017-02-17T18:54:35.576Z,47.5
2017-02-17T18:57:08.131Z,47.5
2017-02-17T18:59:40.692Z,47.6
2017-02-17T19:02:13.648Z,47.6
2017-02-17T19:04:46.220Z,47.7
2017-02-17T19:07:18.794Z,47.6
2017-02-17T19:09:51.341Z,47.6
2017-02-17T19:12:23.903Z,47.5
2017-02-17T19:14:56.434Z,47.4
2017-02-17T19:17:28.976Z,47.3
2017-02-17T19:20:01.947Z,47.2
2017-02-17T19:22:34.901Z,47.1
2017-02-17T19:25:07.450Z,47
2017-02-17T19:27:39.993Z,47
2017-02-17T19:30:12.527Z,46.9
2017-02-17T19:32:45.274Z,46.9
2017-02-17T19:35:17.794Z,46.8
2017-02-17T19:37:50.341Z,46.8
2017-02-17T19:40:22.896Z,46.8
2017-02-17T19:42:55.853Z,46.7
2017-02-17T19:45:29.140Z,46.7
2017-02-17T19:48:01.694Z,46.7
2017-02-17T19:50:34.226Z,46.6
2017-02-17T19:53:07.233Z,46.7
2017-02-17T19:55:39.765Z,46.7
2017-02-17T19:58:12.299Z,46.6
2017-02-17T20:00:44.820Z,46.6
2017-02-17T20:03:17.807Z,46.6
2017-02-17T20:05:50.400Z,46.6
2017-02-17T20:08:22.974Z,46.6
2017-02-17T20:10:55.982Z,46.6
2017-02-17T20:13:28.538Z,46.6
2017-02-17T20:16:01.161Z,46.6
2017-02-17T20:18:34.152Z,46.5
2017-02-17T20:21:06.722Z,46.5
2017-02-17T20:23:39.257Z,46.6
2017-02-17T20:26:12.247Z,46.5
2017-02-17T20:28:45.228Z,46.5
2017-02-17T20:31:17.812Z,46.5
2017-02-17T20:33:50.381Z,46.5
2017-02-17T20:36:22.978Z,46.4
2017-02-17T20:38:55.979Z,46.4
2017-02-17T20:41:29.872Z,46.4
2017-02-17T20:44:02.428Z,46.4
2017-02-17T20:46:35.423Z,46.4
2017-02-17T20:49:08.028Z,46.4
2017-02-17T20:51:40.600Z,46.3
2017-02-17T20:54:13.182Z,46.3
2017-02-17T20:56:45.743Z,46.3
2017-02-17T20:59:18.306Z,46.3
2017-02-17T21:01:50.869Z,46.3
2017-02-17T21:04:23.409Z,46.3
2017-02-17T21:06:56.358Z,46.2
2017-02-17T21:09:28.918Z,46.2
2017-02-17T21:12:01.898Z,46.1
2017-02-17T21:14:34.853Z,46.3
2017-02-17T21:19:49.074Z,46.5
2017-02-17T21:22:23.176Z,46.9
2017-02-17T21:24:56.412Z,46.9
2017-02-17T21:27:29.635Z,46.9
2017-02-17T21:30:03.264Z,46.9
2017-02-17T21:32:37.009Z,46.9
2017-02-17T21:35:24.931Z,46.9
2017-02-17T21:37:57.714Z,47
2017-02-17T21:40:30.438Z,46.9
2017-02-17T21:43:03.065Z,46.9
2017-02-17T21:45:35.699Z,46.9
2017-02-17T21:48:09.187Z,46.9
2017-02-17T21:50:41.844Z,47
2017-02-17T21:53:15.189Z,47.1
2017-02-17T21:56:02.027Z,46.8
2017-02-17T21:58:35.449Z,46.8
2017-02-17T22:01:08.234Z,46.7
2017-02-17T22:03:41.665Z,46.6
2017-02-17T22:06:14.465Z,46.6
2017-02-17T22:08:48.142Z,46.6
2017-02-17T22:11:20.858Z,46.6
2017-02-17T22:18:13.092Z,46.5
2017-02-17T22:20:46.085Z,46.6
2017-02-17T22:23:18.802Z,46.6
2017-02-17T22:25:52.743Z,46.6
2017-02-17T22:28:25.739Z,46.6
2017-02-17T22:30:58.375Z,46.6
2017-02-17T22:33:31.421Z,46.5
2017-02-17T22:36:04.532Z,46.6
2017-02-17T22:38:37.192Z,46.5
2017-02-17T22:41:09.835Z,46.5
2017-02-17T22:43:42.495Z,46.5
2017-02-17T22:46:15.128Z,46.6
2017-02-17T22:48:47.772Z,46.5
2017-02-17T22:51:20.426Z,46.5
2017-02-17T22:53:53.470Z,46.6
2017-02-17T22:56:26.551Z,46.6
2017-02-17T22:58:59.202Z,46.5
2017-02-17T23:01:32.024Z,46.5
2017-02-17T23:04:04.692Z,46.5
2017-02-17T23:06:37.322Z,46.5
2017-02-17T23:09:09.967Z,46.5
2017-02-17T23:11:43.012Z,46.5
2017-02-17T23:14:16.060Z,46.6
2017-02-17T23:16:49.073Z,46.5
2017-02-17T23:19:21.698Z,46.5
2017-02-17T23:21:54.334Z,46.5
2017-02-17T23:24:27.377Z,46.5
2017-02-17T23:27:00.030Z,46.5
2017-02-17T23:29:33.092Z,46.5
2017-02-17T23:32:06.200Z,46.5
2017-02-17T23:34:38.833Z,46.5
